createdAt,value
2018-12-08T18:25:11.461Z,71.33
2018-12-08T18:26:11.437Z,65.17
2018-12-08T18:27:46.850Z,59.68
2018-12-08T18:28:46.839Z,58.00
2018-12-08T18:30:17.296Z,55.69
2018-12-08T18:31:17.282Z,54.56
2018-12-08T18:32:47.735Z,52.51
2018-12-08T18:33:47.719Z,52.59
2018-12-08T18:35:18.199Z,50.85
2018-12-08T18:36:18.172Z,51.03
2018-12-08T18:37:49.253Z,48.18
2018-12-08T18:38:48.787Z,48.79
2018-12-08T18:40:19.108Z,50.10
2018-12-08T18:41:19.099Z,50.30
2018-12-08T18:42:49.550Z,49.27
2018-12-08T18:43:49.525Z,49.79
2018-12-08T18:45:20.001Z,49.87
2018-12-08T18:46:19.974Z,49.87
2018-12-08T18:47:55.919Z,50.07
2018-12-08T18:48:55.907Z,49.69
2018-12-08T18:50:26.514Z,49.77
2018-12-08T18:51:26.525Z,49.67
2018-12-08T18:52:56.822Z,49.49
2018-12-08T18:53:56.807Z,49.69
2018-12-08T18:55:27.566Z,49.99
2018-12-08T18:56:27.262Z,50.10
2018-12-08T18:57:57.722Z,52.82
2018-12-08T18:58:58.114Z,51.00
2018-12-08T19:00:34.704Z,50.68
2018-12-08T19:01:34.680Z,49.59
2018-12-08T19:02:34.663Z,49.99
2018-12-08T19:03:34.661Z,49.99
2018-12-08T19:04:34.642Z,49.90
2018-12-08T19:05:34.630Z,50.50
2018-12-08T19:06:34.625Z,50.50
2018-12-08T19:07:34.626Z,50.12
2018-12-08T19:08:34.604Z,51.81
2018-12-08T19:09:34.628Z,50.62
2018-12-08T19:10:34.576Z,51.03
2018-12-08T19:11:34.565Z,50.42
2018-12-08T19:12:34.552Z,50.62
2018-12-08T19:13:34.658Z,50.42
2018-12-08T19:14:34.532Z,50.02
2018-12-08T19:15:34.540Z,50.22
2018-12-08T19:16:34.512Z,50.22
2018-12-08T19:17:34.503Z,50.32
2018-12-08T19:18:34.495Z,50.73
2018-12-08T19:19:34.476Z,51.03
2018-12-08T19:20:34.464Z,50.85
2018-12-08T19:21:34.490Z,51.45
2018-12-08T19:22:34.525Z,52.06
2018-12-08T19:23:34.432Z,52.56
2018-12-08T19:24:34.636Z,52.36
2018-12-08T19:25:34.560Z,52.76
2018-12-08T19:26:34.399Z,50.04
2018-12-08T19:27:34.454Z,51.45
2018-12-08T19:28:34.468Z,50.85
2018-12-08T19:29:34.364Z,51.05
2018-12-08T19:30:34.353Z,52.06
2018-12-08T19:31:34.342Z,50.85
2018-12-08T19:32:34.334Z,50.85
2018-12-08T19:33:34.321Z,56.20
2018-12-08T19:34:34.311Z,58.29
2018-12-08T19:35:34.301Z,59.20
2018-12-08T19:36:34.288Z,60.08
2018-12-08T19:37:34.277Z,59.47
2018-12-08T19:38:34.265Z,57.53
2018-12-08T19:39:34.260Z,57.30
2018-12-08T19:40:34.245Z,57.81
2018-12-08T19:41:34.236Z,57.15
2018-12-08T19:42:34.358Z,57.55
2018-12-08T19:43:34.211Z,56.92
2018-12-08T19:44:34.200Z,56.79
2018-12-08T19:45:34.196Z,56.09
2018-12-08T19:46:34.216Z,56.46
2018-12-08T19:47:34.176Z,55.13
2018-12-08T19:48:34.358Z,54.72
2018-12-08T19:49:34.143Z,54.50
2018-12-08T19:50:34.132Z,54.40
2018-12-08T19:51:34.122Z,53.57
2018-12-08T19:52:34.111Z,53.27
2018-12-08T19:53:34.101Z,53.45
2018-12-08T19:54:34.089Z,53.05
2018-12-08T19:55:34.079Z,52.94
2018-12-08T19:56:34.067Z,52.42
2018-12-08T19:57:34.077Z,51.59
2018-12-08T19:58:34.046Z,51.89
2018-12-08T19:59:34.037Z,52.09
2018-12-08T20:00:34.024Z,52.07
2018-12-08T20:01:34.016Z,51.57
2018-12-08T20:02:34.003Z,52.07
2018-12-08T20:03:34.132Z,51.64
2018-12-08T20:04:33.992Z,51.34
2018-12-08T20:05:33.973Z,50.84
2018-12-08T20:06:33.963Z,50.94
2018-12-08T20:07:33.952Z,50.42
2018-12-08T20:08:33.939Z,50.32
2018-12-08T20:09:33.928Z,50.52
2018-12-08T20:10:33.920Z,50.39
2018-12-08T20:11:33.905Z,50.89
2018-12-08T20:12:33.898Z,50.29
2018-12-08T20:13:33.885Z,49.79
2018-12-08T20:14:33.873Z,49.77
2018-12-08T20:15:33.866Z,49.27
2018-12-08T20:16:33.850Z,49.37
2018-12-08T20:17:33.840Z,49.27
2018-12-08T20:18:33.828Z,49.57
2018-12-08T20:19:33.818Z,48.85
2018-12-08T20:20:33.807Z,48.85
2018-12-08T20:21:33.799Z,48.55
2018-12-08T20:22:33.809Z,48.14
2018-12-08T20:23:33.774Z,48.35
2018-12-08T20:24:33.765Z,47.95
2018-12-08T20:25:33.751Z,48.14
2018-12-08T20:26:33.743Z,48.32
2018-12-08T20:27:33.732Z,48.32
2018-12-08T20:28:33.718Z,48.13
2018-12-08T20:29:33.712Z,47.42
2018-12-08T20:30:33.697Z,46.43
2018-12-08T20:31:33.687Z,47.03
2018-12-08T20:32:33.674Z,47.53
2018-12-08T20:33:33.677Z,48.02
2018-12-08T20:34:33.695Z,48.13
2018-12-08T20:35:33.640Z,47.53
2018-12-08T20:36:33.628Z,48.02
2018-12-08T20:37:33.617Z,47.72
2018-12-08T20:38:33.608Z,47.63
2018-12-08T20:39:33.606Z,47.13
2018-12-08T20:40:33.588Z,47.63
2018-12-08T20:41:33.575Z,47.53
2018-12-08T20:42:33.564Z,47.42
2018-12-08T20:43:33.577Z,47.42
2018-12-08T20:44:33.549Z,47.72
2018-12-08T20:45:33.542Z,47.42
2018-12-08T20:46:33.537Z,48.13
2018-12-08T20:47:33.512Z,47.42
2018-12-08T20:48:33.530Z,47.42
2018-12-08T20:49:33.540Z,47.42
2018-12-08T20:50:33.484Z,48.13
2018-12-08T20:51:33.464Z,47.13
2018-12-08T20:52:33.470Z,47.53
2018-12-08T20:53:33.471Z,46.23
2018-12-08T20:54:33.445Z,46.33
2018-12-08T20:55:33.427Z,46.33
2018-12-08T20:56:33.417Z,46.53
2018-12-08T20:57:33.402Z,47.72
2018-12-08T20:58:33.411Z,47.92
2018-12-08T20:59:33.402Z,46.11
2018-12-08T21:00:33.366Z,46.11
2018-12-08T21:01:33.360Z,46.53
2018-12-08T21:02:33.365Z,46.70
2018-12-08T21:03:33.334Z,47.00
2018-12-08T21:04:33.322Z,47.40
2018-12-08T21:05:33.310Z,47.30
2018-12-08T21:06:33.301Z,46.50
2018-12-08T21:07:33.289Z,46.91
2018-12-08T21:08:33.289Z,46.41
2018-12-08T21:09:33.267Z,46.70
2018-12-08T21:10:33.255Z,46.61
2018-12-08T21:11:33.246Z,46.61
2018-12-08T21:12:33.234Z,46.01
2018-12-08T21:13:33.224Z,46.70
2018-12-08T21:14:33.213Z,46.50
2018-12-08T21:15:33.202Z,46.01
2018-12-08T21:16:33.192Z,46.91
2018-12-08T21:17:33.180Z,45.90
2018-12-08T21:18:33.169Z,46.41
2018-12-08T21:19:33.159Z,46.50
2018-12-08T21:20:33.235Z,46.61
2018-12-08T21:21:33.137Z,46.11
2018-12-08T21:22:33.131Z,46.11
2018-12-08T21:23:33.118Z,47.20
2018-12-08T21:24:33.106Z,45.61
2018-12-08T21:25:33.109Z,46.41
2018-12-08T21:26:33.082Z,45.90
2018-12-08T21:27:33.072Z,46.38
2018-12-08T21:28:33.061Z,46.01
2018-12-08T21:29:33.059Z,46.31
2018-12-08T21:30:33.055Z,46.11
2018-12-08T21:31:33.037Z,45.78
2018-12-08T21:32:33.046Z,45.61
2018-12-08T21:33:33.060Z,46.31
2018-12-08T21:34:33.000Z,45.78
2018-12-08T21:35:33.006Z,45.98
2018-12-08T21:36:32.994Z,45.98
2018-12-08T21:37:32.990Z,45.78
2018-12-08T21:38:32.983Z,45.29
2018-12-08T21:39:32.945Z,46.38
2018-12-08T21:40:32.935Z,45.89
2018-12-08T21:41:32.926Z,45.78
2018-12-08T21:42:32.911Z,45.39
2018-12-08T21:43:32.917Z,46.19
2018-12-08T21:44:32.914Z,45.18
2018-12-08T21:45:32.891Z,44.89
2018-12-08T21:46:32.867Z,45.98
2018-12-08T21:47:32.868Z,45.18
2018-12-08T21:48:32.846Z,45.59
2018-12-08T21:49:32.861Z,45.66
2018-12-08T21:50:32.824Z,45.48
2018-12-08T21:51:32.816Z,45.66
2018-12-08T21:52:32.807Z,45.26
2018-12-08T21:53:32.793Z,44.67
2018-12-08T21:54:32.785Z,45.18
2018-12-08T21:55:32.771Z,45.39
2018-12-08T21:56:32.766Z,45.39
2018-12-08T21:57:32.749Z,44.27
2018-12-08T21:58:32.745Z,45.06
2018-12-08T21:59:32.729Z,45.17
2018-12-08T22:00:32.725Z,45.76
2018-12-08T22:01:32.706Z,45.36
2018-12-08T22:02:32.697Z,45.17
2018-12-08T22:03:32.684Z,44.07
2018-12-08T22:04:32.675Z,44.46
2018-12-08T22:05:32.667Z,44.37
2018-12-08T22:06:32.655Z,45.06
2018-12-08T22:07:32.643Z,44.46
2018-12-08T22:08:32.629Z,45.47
2018-12-08T22:09:32.620Z,45.26
2018-12-08T22:10:32.617Z,45.66
2018-12-08T22:11:32.603Z,45.76
2018-12-08T22:12:32.591Z,45.86
2018-12-08T22:13:32.577Z,45.94
2018-12-08T22:14:32.567Z,45.64
2018-12-08T22:15:32.556Z,45.44
2018-12-08T22:16:32.549Z,45.84
2018-12-08T22:17:32.542Z,46.14
2018-12-08T22:18:32.529Z,46.44
2018-12-08T22:19:32.512Z,45.84
2018-12-08T22:20:32.502Z,45.34
2018-12-08T22:21:32.493Z,45.74
2018-12-08T22:22:32.488Z,45.54
2018-12-08T22:23:32.477Z,45.54
2018-12-08T22:24:32.465Z,45.64
2018-12-08T22:25:32.447Z,45.34
2018-12-08T22:26:32.436Z,45.54
2018-12-08T22:27:32.426Z,45.24
2018-12-08T22:28:32.430Z,45.14
2018-12-08T22:29:32.415Z,45.32
2018-12-08T22:30:32.405Z,45.22
2018-12-08T22:31:32.497Z,45.02
2018-12-08T22:32:32.375Z,45.42
2018-12-08T22:33:32.372Z,45.42
2018-12-08T22:34:32.351Z,44.82
2018-12-08T22:35:32.343Z,44.92
2018-12-08T22:36:32.345Z,44.72
2018-12-08T22:37:32.319Z,45.52
2018-12-08T22:38:32.312Z,45.12
2018-12-08T22:39:32.297Z,44.82
2018-12-08T22:40:32.310Z,45.02
2018-12-08T22:41:32.282Z,44.72
2018-12-08T22:42:32.267Z,46.31
2018-12-08T22:43:32.261Z,45.52
2018-12-08T22:44:32.243Z,45.32
2018-12-08T22:45:32.231Z,45.22
2018-12-08T22:46:32.223Z,45.32
2018-12-08T22:47:32.223Z,45.84
2018-12-08T22:48:33.906Z,45.24
2018-12-08T22:49:32.191Z,45.74
2018-12-08T22:50:32.180Z,46.34
2018-12-08T22:51:32.169Z,45.94
2018-12-08T22:52:32.162Z,46.14
2018-12-08T22:53:32.150Z,45.74
2018-12-08T22:54:32.135Z,45.94
2018-12-08T22:55:32.124Z,45.84
2018-12-08T22:56:32.168Z,45.84
2018-12-08T22:57:32.105Z,45.94
2018-12-08T22:58:32.093Z,45.34
2018-12-08T22:59:32.092Z,45.84
2018-12-08T23:00:32.073Z,46.12
2018-12-08T23:01:32.064Z,45.64
2018-12-08T23:02:32.048Z,45.84
2018-12-08T23:03:32.042Z,45.94
2018-12-08T23:04:32.030Z,45.64
2018-12-08T23:05:32.056Z,46.14
2018-12-08T23:06:32.006Z,45.84
2018-12-08T23:07:32.368Z,46.01
2018-12-08T23:08:31.984Z,46.01
2018-12-08T23:09:31.991Z,45.92
2018-12-08T23:10:31.970Z,45.62
2018-12-08T23:11:31.973Z,45.52
2018-12-08T23:12:31.941Z,45.92
2018-12-08T23:13:31.935Z,46.42
2018-12-08T23:14:32.866Z,46.01
2018-12-08T23:15:31.914Z,45.92
2018-12-08T23:16:31.905Z,46.42
2018-12-08T23:17:31.892Z,45.84
2018-12-08T23:18:31.879Z,45.92
2018-12-08T23:19:31.866Z,46.51
2018-12-08T23:20:31.860Z,46.01
2018-12-08T23:21:31.848Z,46.01
2018-12-08T23:22:31.844Z,46.22
2018-12-08T23:23:31.846Z,46.51
2018-12-08T23:24:31.817Z,45.72
2018-12-08T23:25:31.802Z,45.82
2018-12-08T23:26:31.792Z,46.51
2018-12-08T23:27:31.782Z,45.82
2018-12-08T23:28:31.782Z,46.42
2018-12-08T23:29:31.759Z,45.82
2018-12-08T23:30:31.749Z,45.82
2018-12-08T23:31:31.739Z,46.12
2018-12-08T23:32:31.762Z,46.31
2018-12-08T23:33:31.718Z,46.22
2018-12-08T23:34:31.710Z,46.22
2018-12-08T23:35:31.697Z,45.42
2018-12-08T23:36:31.793Z,45.72
2018-12-08T23:37:31.673Z,47.31
2018-12-08T23:38:31.669Z,46.81
2018-12-08T23:39:38.788Z,45.92
2018-12-08T23:40:32.642Z,45.82
2018-12-08T23:41:31.663Z,46.12
2018-12-08T23:42:31.622Z,46.22
2018-12-08T23:43:31.614Z,46.22
2018-12-08T23:44:31.605Z,45.92
2018-12-08T23:45:32.410Z,46.31
2018-12-08T23:46:31.594Z,46.22
2018-12-08T23:47:31.568Z,46.31
2018-12-08T23:48:31.556Z,45.92
2018-12-08T23:49:31.549Z,46.12
2018-12-08T23:50:31.580Z,45.42
2018-12-08T23:51:31.524Z,45.92
2018-12-08T23:52:31.520Z,45.72
2018-12-08T23:53:31.503Z,46.01
2018-12-08T23:54:31.492Z,46.42
2018-12-08T23:55:31.482Z,40.04
2018-12-08T23:56:31.471Z,37.97
2018-12-08T23:57:31.462Z,38.37
2018-12-08T23:58:31.476Z,37.29
2018-12-08T23:59:31.446Z,37.81
